Time,TemperatureF,DewpointF,PressureIn,WindDirection,WindDirectionDegrees,WindSpeedMPH,WindSpeedGustMPH,Humidity,HourlyPrecipIn,Conditions,Clouds,dailyrainin,SolarRadiationWatts/m^2,SoftwareType,DateUTC
2013-02-02 00:02:00,26.0,19.0,-100.00,NE,53,2.0,4.0,74,0.00,,,0.00,1.000000,,2013-02-02 07:02:00,
2013-02-02 00:11:00,26.0,19.0,-100.00,NE,53,2.0,4.0,74,0.00,,,0.00,1.000000,,2013-02-02 07:11:00,
2013-02-02 00:21:00,26.0,19.0,-100.00,NE,53,2.0,4.0,74,0.00,,,0.00,1.000000,,2013-02-02 07:21:00,
2013-02-02 00:31:00,26.0,19.0,-100.00,NE,53,2.0,4.0,74,0.00,,,0.00,1.000000,,2013-02-02 07:31:00,
2013-02-02 01:01:00,25.0,19.0,-100.00,ENE,74,4.0,5.0,76,0.00,,,0.00,1.000000,,2013-02-02 08:01:00,
2013-02-02 01:11:00,25.0,19.0,-100.00,ENE,74,4.0,5.0,76,0.00,,,0.00,1.000000,,2013-02-02 08:11:00,
2013-02-02 01:21:00,25.0,19.0,-100.00,ENE,74,4.0,5.0,76,0.00,,,0.00,1.000000,,2013-02-02 08:21:00,
2013-02-02 01:31:00,25.0,19.0,-100.00,ENE,74,4.0,5.0,76,0.00,,,0.00,1.000000,,2013-02-02 08:31:00,
2013-02-02 01:53:00,25.0,17.0,-100.00,ENE,67,4.0,4.0,71,0.00,,,0.00,1.000000,,2013-02-02 08:53:00,
2013-02-02 02:01:00,25.0,17.0,-100.00,ENE,67,4.0,4.0,71,0.00,,,0.00,1.000000,,2013-02-02 09:01:00,
2013-02-02 02:11:00,25.0,17.0,-100.00,ENE,67,4.0,4.0,71,0.00,,,0.00,1.000000,,2013-02-02 09:11:00,
2013-02-02 02:22:00,25.0,17.0,-100.00,ENE,67,4.0,4.0,71,0.00,,,0.00,1.000000,,2013-02-02 09:22:00,
2013-02-02 02:31:00,25.0,17.0,-100.00,ENE,67,4.0,4.0,71,0.00,,,0.00,1.000000,,2013-02-02 09:31:00,
2013-02-02 03:01:00,26.0,16.0,-100.00,ENE,76,4.0,5.0,66,0.00,,,0.00,1.000000,,2013-02-02 10:01:00,
2013-02-02 03:31:00,26.0,16.0,-100.00,ENE,76,4.0,5.0,66,0.00,,,0.00,1.000000,,2013-02-02 10:31:00,
2013-02-02 03:52:00,29.0,13.0,-100.00,East,81,4.0,6.0,51,0.00,,,0.00,1.000000,,2013-02-02 10:52:00,
2013-02-02 04:01:00,29.0,13.0,-100.00,East,81,4.0,6.0,51,0.00,,,0.00,1.000000,,2013-02-02 11:01:00,
2013-02-02 04:52:00,29.0,14.0,-100.00,ENE,70,5.0,6.0,53,0.00,,,0.00,1.000000,,2013-02-02 11:52:00,
2013-02-02 05:01:00,29.0,14.0,-100.00,ENE,70,5.0,6.0,53,0.00,,,0.00,1.000000,,2013-02-02 12:01:00,
2013-02-02 05:11:00,29.0,14.0,-100.00,ENE,70,5.0,6.0,53,0.00,,,0.00,1.000000,,2013-02-02 12:11:00,
2013-02-02 05:22:00,29.0,14.0,-100.00,ENE,70,5.0,6.0,53,0.00,,,0.00,1.000000,,2013-02-02 12:22:00,
2013-02-02 05:32:00,29.0,14.0,-100.00,ENE,70,5.0,6.0,53,0.00,,,0.00,1.000000,,2013-02-02 12:32:00,
2013-02-02 06:02:00,28.0,14.0,-100.00,ENE,77,4.0,6.0,54,0.00,,,0.00,1.000000,,2013-02-02 13:02:00,
2013-02-02 06:11:00,28.0,14.0,-100.00,ENE,77,4.0,6.0,54,0.00,,,0.00,1.000000,,2013-02-02 13:11:00,
2013-02-02 06:21:00,28.0,14.0,-100.00,ENE,77,4.0,6.0,54,0.00,,,0.00,1.000000,,2013-02-02 13:21:00,
2013-02-02 06:32:00,28.0,14.0,-100.00,ENE,77,4.0,6.0,54,0.00,,,0.00,1.000000,,2013-02-02 13:32:00,
2013-02-02 07:02:00,28.0,16.0,-100.00,ENE,77,4.0,6.0,59,0.00,,,0.00,1.000000,,2013-02-02 14:02:00,
2013-02-02 07:11:00,28.0,16.0,-100.00,ENE,77,4.0,6.0,59,0.00,,,0.00,1.000000,,2013-02-02 14:11:00,
2013-02-02 07:22:00,28.0,16.0,-100.00,ENE,77,4.0,6.0,59,0.00,,,0.00,1.000000,,2013-02-02 14:22:00,
2013-02-02 07:32:00,28.0,16.0,-100.00,ENE,77,4.0,6.0,59,0.00,,,0.00,1.000000,,2013-02-02 14:32:00,
2013-02-02 08:03:00,29.0,15.0,-100.00,East,79,5.0,7.0,56,0.00,,,0.00,3.000000,,2013-02-02 15:03:00,
2013-02-02 08:12:00,29.0,15.0,-100.00,East,79,5.0,7.0,56,0.00,,,0.00,3.000000,,2013-02-02 15:12:00,
2013-02-02 08:21:00,29.0,15.0,-100.00,East,79,5.0,7.0,56,0.00,,,0.00,3.000000,,2013-02-02 15:21:00,
2013-02-02 08:32:00,29.0,15.0,-100.00,East,79,5.0,7.0,56,0.00,,,0.00,3.000000,,2013-02-02 15:32:00,
2013-02-02 09:02:00,36.0,16.0,-100.00,East,80,5.0,8.0,44,0.00,,,0.00,78.000000,,2013-02-02 16:02:00,
2013-02-02 09:11:00,36.0,16.0,-100.00,East,80,5.0,8.0,44,0.00,,,0.00,78.000000,,2013-02-02 16:11:00,
2013-02-02 09:22:00,36.0,16.0,-100.00,East,80,5.0,8.0,44,0.00,,,0.00,78.000000,,2013-02-02 16:22:00,
2013-02-02 09:31:00,36.0,16.0,-100.00,East,80,5.0,8.0,44,0.00,,,0.00,78.000000,,2013-02-02 16:31:00,
2013-02-02 09:52:00,38.0,15.0,-100.00,East,84,5.0,8.0,38,0.00,,,0.00,237.000000,,2013-02-02 16:52:00,
2013-02-02 10:02:00,38.0,15.0,-100.00,East,84,5.0,8.0,38,0.00,,,0.00,237.000000,,2013-02-02 17:02:00,
2013-02-02 10:31:00,38.0,15.0,-100.00,East,84,5.0,8.0,38,0.00,,,0.00,237.000000,,2013-02-02 17:31:00,
2013-02-02 10:52:00,41.0,15.0,-100.00,East,95,4.0,9.0,34,0.00,,,0.00,391.000000,,2013-02-02 17:52:00,
2013-02-02 11:02:00,41.0,15.0,-100.00,East,95,4.0,9.0,34,0.00,,,0.00,391.000000,,2013-02-02 18:02:00,
2013-02-02 11:12:00,41.0,15.0,-100.00,East,95,4.0,9.0,34,0.00,,,0.00,391.000000,,2013-02-02 18:12:00,
2013-02-02 11:22:00,41.0,15.0,-100.00,East,95,4.0,9.0,34,0.00,,,0.00,391.000000,,2013-02-02 18:22:00,
2013-02-02 11:31:00,41.0,15.0,-100.00,East,95,4.0,9.0,34,0.00,,,0.00,391.000000,,2013-02-02 18:31:00,
2013-02-02 12:02:00,44.0,15.0,-100.00,ESE,109,3.0,6.0,31,0.00,,,0.00,536.000000,,2013-02-02 19:02:00,
2013-02-02 12:11:00,44.0,15.0,-100.00,ESE,109,3.0,6.0,31,0.00,,,0.00,536.000000,,2013-02-02 19:11:00,
2013-02-02 12:21:00,44.0,15.0,-100.00,ESE,109,3.0,6.0,31,0.00,,,0.00,536.000000,,2013-02-02 19:21:00,
2013-02-02 12:31:00,44.0,15.0,-100.00,ESE,109,3.0,6.0,31,0.00,,,0.00,536.000000,,2013-02-02 19:31:00,
2013-02-02 12:52:00,45.0,14.0,-100.00,NE,35,4.0,7.0,28,0.00,,,0.00,613.000000,,2013-02-02 19:52:00,
2013-02-02 13:01:00,45.0,14.0,-100.00,NE,35,4.0,7.0,28,0.00,,,0.00,613.000000,,2013-02-02 20:01:00,
2013-02-02 13:32:00,45.0,14.0,-100.00,NE,35,4.0,7.0,28,0.00,,,0.00,613.000000,,2013-02-02 20:32:00,
2013-02-02 14:02:00,49.0,15.0,-100.00,ENE,64,3.0,6.0,25,0.00,,,0.00,610.000000,,2013-02-02 21:02:00,
2013-02-02 14:32:00,49.0,15.0,-100.00,ENE,64,3.0,6.0,25,0.00,,,0.00,610.000000,,2013-02-02 21:32:00,
2013-02-02 14:52:00,47.0,15.0,-100.00,East,99,4.0,6.0,27,0.00,,,0.00,511.000000,,2013-02-02 21:52:00,
2013-02-02 15:02:00,47.0,15.0,-100.00,East,99,4.0,6.0,27,0.00,,,0.00,511.000000,,2013-02-02 22:02:00,
2013-02-02 15:21:00,47.0,15.0,-100.00,East,99,4.0,6.0,27,0.00,,,0.00,511.000000,,2013-02-02 22:21:00,
2013-02-02 15:32:00,47.0,15.0,-100.00,East,99,4.0,6.0,27,0.00,,,0.00,511.000000,,2013-02-02 22:32:00,
2013-02-02 15:52:00,46.0,19.0,-100.00,ESE,111,3.0,6.0,34,0.00,,,0.00,357.000000,,2013-02-02 22:52:00,
2013-02-02 16:01:00,46.0,19.0,-100.00,ESE,111,3.0,6.0,34,0.00,,,0.00,357.000000,,2013-02-02 23:01:00,
2013-02-02 16:11:00,46.0,19.0,-100.00,ESE,111,3.0,6.0,34,0.00,,,0.00,357.000000,,2013-02-02 23:11:00,
2013-02-02 16:21:00,46.0,19.0,-100.00,ESE,111,3.0,6.0,34,0.00,,,0.00,357.000000,,2013-02-02 23:21:00,
2013-02-02 16:32:00,46.0,19.0,-100.00,ESE,111,3.0,6.0,34,0.00,,,0.00,357.000000,,2013-02-02 23:32:00,
2013-02-02 17:01:00,42.0,20.0,-100.00,East,99,5.0,7.0,41,0.00,,,0.00,249.000000,,2013-02-03 00:01:00,
2013-02-02 17:11:00,42.0,20.0,-100.00,East,99,5.0,7.0,41,0.00,,,0.00,249.000000,,2013-02-03 00:11:00,
2013-02-02 17:21:00,42.0,20.0,-100.00,East,99,5.0,7.0,41,0.00,,,0.00,249.000000,,2013-02-03 00:21:00,
2013-02-02 17:31:00,42.0,20.0,-100.00,East,99,5.0,7.0,41,0.00,,,0.00,249.000000,,2013-02-03 00:31:00,
2013-02-02 18:02:00,38.0,22.0,-100.00,East,81,5.0,8.0,51,0.00,,,0.00,92.000000,,2013-02-03 01:02:00,
2013-02-02 18:11:00,38.0,22.0,-100.00,East,81,5.0,8.0,51,0.00,,,0.00,92.000000,,2013-02-03 01:11:00,
2013-02-02 18:21:00,38.0,22.0,-100.00,East,81,5.0,8.0,51,0.00,,,0.00,92.000000,,2013-02-03 01:21:00,
2013-02-02 18:32:00,38.0,22.0,-100.00,East,81,5.0,8.0,51,0.00,,,0.00,92.000000,,2013-02-03 01:32:00,
2013-02-02 19:01:00,35.0,22.0,-100.00,ENE,72,5.0,9.0,58,0.00,,,0.00,3.000000,,2013-02-03 02:01:00,
2013-02-02 19:11:00,35.0,22.0,-100.00,ENE,72,5.0,9.0,58,0.00,,,0.00,3.000000,,2013-02-03 02:11:00,
2013-02-02 19:21:00,35.0,22.0,-100.00,ENE,72,5.0,9.0,58,0.00,,,0.00,3.000000,,2013-02-03 02:21:00,
2013-02-02 19:31:00,35.0,22.0,-100.00,ENE,72,5.0,9.0,58,0.00,,,0.00,3.000000,,2013-02-03 02:31:00,
2013-02-02 19:52:00,32.0,21.0,-100.00,East,79,5.0,7.0,64,0.00,,,0.00,1.000000,,2013-02-03 02:52:00,
2013-02-02 20:02:00,32.0,21.0,-100.00,East,79,5.0,7.0,64,0.00,,,0.00,1.000000,,2013-02-03 03:02:00,
2013-02-02 20:11:00,32.0,21.0,-100.00,East,79,5.0,7.0,64,0.00,,,0.00,1.000000,,2013-02-03 03:11:00,
2013-02-02 20:21:00,32.0,21.0,-100.00,East,79,5.0,7.0,64,0.00,,,0.00,1.000000,,2013-02-03 03:21:00,
2013-02-02 20:31:00,32.0,21.0,-100.00,East,79,5.0,7.0,64,0.00,,,0.00,1.000000,,2013-02-03 03:31:00,
2013-02-02 21:01:00,33.0,21.0,-100.00,ENE,72,4.0,6.0,62,0.00,,,0.00,1.000000,,2013-02-03 04:01:00,
2013-02-02 21:11:00,33.0,21.0,-100.00,ENE,72,4.0,6.0,62,0.00,,,0.00,1.000000,,2013-02-03 04:11:00,
2013-02-02 21:21:00,33.0,21.0,-100.00,ENE,72,4.0,6.0,62,0.00,,,0.00,1.000000,,2013-02-03 04:21:00,
2013-02-02 21:31:00,33.0,21.0,-100.00,ENE,72,4.0,6.0,62,0.00,,,0.00,1.000000,,2013-02-03 04:31:00,
2013-02-02 22:03:00,32.0,21.0,-100.00,East,91,5.0,6.0,64,0.00,,,0.00,1.000000,,2013-02-03 05:03:00,
2013-02-02 22:11:00,32.0,21.0,-100.00,East,91,5.0,6.0,64,0.00,,,0.00,1.000000,,2013-02-03 05:11:00,
2013-02-02 22:22:00,32.0,21.0,-100.00,East,91,5.0,6.0,64,0.00,,,0.00,1.000000,,2013-02-03 05:22:00,
2013-02-02 22:31:00,32.0,21.0,-100.00,East,91,5.0,6.0,64,0.00,,,0.00,1.000000,,2013-02-03 05:31:00,
2013-02-02 22:52:00,33.0,15.0,-100.00,East,98,6.0,7.0,48,0.00,,,0.00,1.000000,,2013-02-03 05:52:00,
2013-02-02 23:02:00,33.0,15.0,-100.00,East,98,6.0,7.0,48,0.00,,,0.00,1.000000,,2013-02-03 06:02:00,
2013-02-02 23:11:00,33.0,15.0,-100.00,East,98,6.0,7.0,48,0.00,,,0.00,1.000000,,2013-02-03 06:11:00,
2013-02-02 23:21:00,33.0,15.0,-100.00,East,98,6.0,7.0,48,0.00,,,0.00,1.000000,,2013-02-03 06:21:00,
2013-02-02 23:31:00,33.0,15.0,-100.00,East,98,6.0,7.0,48,0.00,,,0.00,1.000000,,2013-02-03 06:31:00,